createdAt,value
2019-05-25T00:00:08.089Z,71.04
2019-05-25T00:02:36.781Z,71.11
2019-05-25T00:05:05.943Z,71.09
2019-05-25T00:07:34.617Z,71.31
2019-05-25T00:10:03.554Z,71.63
2019-05-25T00:12:32.304Z,72.19
2019-05-25T00:15:01.378Z,71.96
2019-05-25T00:17:30.261Z,71.89
2019-05-25T00:19:59.193Z,71.61
2019-05-25T00:22:27.868Z,71.32
2019-05-25T00:24:56.553Z,71.31
2019-05-25T00:27:25.517Z,71.31
2019-05-25T00:29:55.669Z,71.72
2019-05-25T00:32:24.294Z,71.94
2019-05-25T00:34:52.974Z,72.12
2019-05-25T00:37:21.651Z,71.73
2019-05-25T00:39:50.623Z,72.23
2019-05-25T00:42:19.298Z,71.71
2019-05-25T00:44:47.989Z,71.95
2019-05-25T00:47:16.663Z,71.85
2019-05-25T00:49:45.362Z,72.47
2019-05-25T00:52:14.362Z,72.57
2019-05-25T00:54:43.406Z,72.40
2019-05-25T00:57:12.082Z,72.47
2019-05-25T00:59:41.052Z,72.71
2019-05-25T01:02:09.734Z,72.51
2019-05-25T01:04:38.485Z,72.53
2019-05-25T01:07:07.137Z,71.89
2019-05-25T01:09:35.812Z,72.35
2019-05-25T01:12:04.565Z,72.62
2019-05-25T01:14:33.250Z,72.38
2019-05-25T01:17:03.368Z,72.35
2019-05-25T01:19:32.076Z,73.10
2019-05-25T01:22:00.776Z,72.78
2019-05-25T01:24:43.930Z,73.15
2019-05-25T01:27:01.407Z,73.30
2019-05-25T01:29:30.093Z,73.81
2019-05-25T01:31:59.144Z,74.09
2019-05-25T01:34:27.837Z,74.95
2019-05-25T01:36:56.785Z,74.16
2019-05-25T01:39:25.795Z,74.29
2019-05-25T01:41:54.468Z,73.94
2019-05-25T01:44:23.144Z,73.99
2019-05-25T01:46:51.830Z,74.27
2019-05-25T01:49:20.535Z,74.33
2019-05-25T01:51:49.220Z,74.77
2019-05-25T01:54:18.420Z,74.97
2019-05-25T01:56:47.088Z,74.94
2019-05-25T01:59:15.793Z,74.89
2019-05-25T02:01:45.089Z,74.70
2019-05-25T02:04:13.799Z,74.38
2019-05-25T02:06:42.482Z,74.74
2019-05-25T02:09:11.181Z,74.72
2019-05-25T02:11:40.940Z,75.54
2019-05-25T02:14:09.629Z,74.61
2019-05-25T02:16:38.630Z,74.91
2019-05-25T02:19:07.310Z,74.75
2019-05-25T02:21:36.305Z,74.34
2019-05-25T02:24:05.406Z,74.25
2019-05-25T02:26:34.225Z,74.96
2019-05-25T02:29:03.257Z,75.03
2019-05-25T02:31:31.936Z,74.94
2019-05-25T02:34:00.612Z,74.86
2019-05-25T02:36:29.300Z,74.31
2019-05-25T02:38:58.237Z,74.70
2019-05-25T02:41:26.989Z,74.26
2019-05-25T02:43:55.675Z,74.42
2019-05-25T02:46:24.374Z,74.96
2019-05-25T02:48:53.036Z,75.35
2019-05-25T02:51:21.714Z,75.94
2019-05-25T02:53:50.755Z,76.03
2019-05-25T02:56:19.692Z,75.81
2019-05-25T02:58:48.369Z,76.86
2019-05-25T03:01:17.062Z,77.64
2019-05-25T03:03:45.739Z,77.46
2019-05-25T03:06:15.236Z,78.43
2019-05-25T03:08:45.350Z,77.52
2019-05-25T03:11:14.124Z,77.11
2019-05-25T03:13:42.882Z,77.85
2019-05-25T03:16:11.561Z,76.91
2019-05-25T03:18:40.587Z,76.99
2019-05-25T03:21:09.295Z,77.24
2019-05-25T03:23:37.964Z,78.39
2019-05-25T03:26:06.689Z,77.72
2019-05-25T03:28:35.635Z,76.97
2019-05-25T03:31:04.724Z,77.04
2019-05-25T03:33:33.398Z,77.94
2019-05-25T03:36:02.064Z,77.23
2019-05-25T03:38:31.052Z,77.14
2019-05-25T03:41:00.039Z,77.39
2019-05-25T03:43:28.674Z,78.01
2019-05-25T03:45:57.375Z,78.94
2019-05-25T03:48:26.070Z,79.19
2019-05-25T03:50:54.753Z,78.58
2019-05-25T03:53:23.434Z,78.29
2019-05-25T03:56:04.704Z,77.98
2019-05-25T03:58:22.533Z,77.91
2019-05-25T04:00:51.233Z,77.29
2019-05-25T04:03:19.904Z,77.35
2019-05-25T04:05:48.875Z,77.93
2019-05-25T04:08:17.772Z,78.20
2019-05-25T04:10:46.531Z,78.44
2019-05-25T04:13:15.485Z,78.63
2019-05-25T04:15:44.809Z,79.42
2019-05-25T04:18:13.550Z,79.24
2019-05-25T04:20:42.848Z,79.16
2019-05-25T04:23:11.790Z,79.22
2019-05-25T04:25:40.772Z,78.43
2019-05-25T04:28:10.558Z,78.07
2019-05-25T04:30:39.215Z,78.65
2019-05-25T04:33:08.060Z,78.01
2019-05-25T04:35:37.111Z,77.98
2019-05-25T04:38:05.806Z,77.28
2019-05-25T04:40:35.094Z,75.93
2019-05-25T04:43:03.850Z,78.29
2019-05-25T04:45:32.525Z,78.33
2019-05-25T04:48:01.438Z,78.12
2019-05-25T04:50:30.964Z,78.52
2019-05-25T04:52:59.731Z,79.01
2019-05-25T04:55:29.052Z,79.32
2019-05-25T04:57:58.040Z,78.72
2019-05-25T05:00:27.041Z,77.83
2019-05-25T05:02:56.281Z,78.32
2019-05-25T05:05:25.024Z,77.55
2019-05-25T05:07:53.710Z,76.99
2019-05-25T05:10:22.449Z,76.77
2019-05-25T05:12:51.133Z,78.46
2019-05-25T05:15:19.876Z,78.47
2019-05-25T05:17:48.572Z,77.63
2019-05-25T05:20:17.321Z,78.50
2019-05-25T05:22:46.012Z,78.69
2019-05-25T05:25:14.768Z,78.32
2019-05-25T05:27:43.803Z,77.76
2019-05-25T05:30:12.919Z,77.67
2019-05-25T05:32:41.605Z,77.15
2019-05-25T05:35:11.092Z,77.58
2019-05-25T05:37:42.028Z,76.05
2019-05-25T05:40:11.149Z,75.46
2019-05-25T05:42:41.647Z,76.24
2019-05-25T05:45:10.762Z,76.03
2019-05-25T05:47:41.434Z,75.00
2019-05-25T05:50:10.512Z,74.74
2019-05-25T05:52:39.963Z,75.52
2019-05-25T05:55:12.047Z,76.24
2019-05-25T05:57:41.105Z,76.69
2019-05-25T06:00:10.931Z,76.47
2019-05-25T06:02:39.696Z,76.72
2019-05-25T06:05:08.513Z,76.50
2019-05-25T06:07:37.669Z,76.62
2019-05-25T06:10:08.383Z,76.59
2019-05-25T06:12:37.066Z,75.76
2019-05-25T06:15:06.527Z,76.21
2019-05-25T06:17:35.270Z,75.42
2019-05-25T06:20:04.676Z,75.87
2019-05-25T06:22:33.363Z,76.76
2019-05-25T06:25:02.046Z,76.73
2019-05-25T06:27:30.722Z,77.09
2019-05-25T06:29:59.406Z,77.04
2019-05-25T06:32:28.373Z,76.59
2019-05-25T06:34:57.043Z,76.75
2019-05-25T06:37:25.726Z,76.42
2019-05-25T06:39:54.408Z,75.84
2019-05-25T06:42:23.420Z,76.02
2019-05-25T06:44:52.090Z,76.86
2019-05-25T06:47:21.202Z,77.25
2019-05-25T06:49:49.866Z,76.71
2019-05-25T06:52:18.606Z,75.75
2019-05-25T06:54:50.606Z,75.83
2019-05-25T06:57:19.277Z,75.86
2019-05-25T06:59:48.619Z,76.59
2019-05-25T07:02:17.293Z,76.20
2019-05-25T07:04:46.297Z,76.15
2019-05-25T07:07:14.992Z,76.21
2019-05-25T07:09:43.671Z,76.09
2019-05-25T07:12:12.344Z,76.55
2019-05-25T07:14:41.027Z,77.51
2019-05-25T07:17:10.015Z,77.71
2019-05-25T07:19:38.704Z,77.41
2019-05-25T07:22:07.809Z,77.38
2019-05-25T07:24:36.494Z,76.94
2019-05-25T07:27:05.485Z,76.43
2019-05-25T07:29:34.178Z,76.58
2019-05-25T07:32:02.853Z,76.37
2019-05-25T07:34:31.620Z,76.64
2019-05-25T07:37:00.644Z,76.53
2019-05-25T07:39:29.344Z,74.97
2019-05-25T07:41:58.012Z,74.86
2019-05-25T07:44:26.702Z,76.20
2019-05-25T07:46:55.387Z,76.22
2019-05-25T07:49:24.077Z,75.53
2019-05-25T07:51:52.761Z,75.66
2019-05-25T07:54:21.525Z,75.17
2019-05-25T07:56:50.196Z,75.96
2019-05-25T07:59:18.868Z,75.93
2019-05-25T08:01:47.533Z,74.49
2019-05-25T08:04:16.691Z,73.01
2019-05-25T08:06:45.628Z,72.38
2019-05-25T08:09:14.309Z,72.72
2019-05-25T08:11:43.329Z,72.92
2019-05-25T08:14:12.005Z,73.43
2019-05-25T08:16:40.679Z,72.65
2019-05-25T08:19:09.419Z,72.21
2019-05-25T08:21:38.110Z,71.58
2019-05-25T08:24:06.930Z,71.14
2019-05-25T08:26:35.826Z,72.05
2019-05-25T08:29:04.655Z,71.26
2019-05-25T08:31:33.334Z,72.39
2019-05-25T08:34:02.309Z,72.65
2019-05-25T08:36:31.047Z,73.79
2019-05-25T08:39:00.111Z,72.87
2019-05-25T08:41:30.950Z,73.50
2019-05-25T08:44:00.107Z,74.07
2019-05-25T08:46:31.667Z,73.74
2019-05-25T08:49:00.711Z,73.04
2019-05-25T08:51:29.378Z,72.98
2019-05-25T08:53:58.391Z,72.35
2019-05-25T08:56:27.376Z,72.67
2019-05-25T08:58:56.940Z,73.12
2019-05-25T09:01:25.984Z,72.55
2019-05-25T09:03:54.671Z,72.17
2019-05-25T09:06:24.541Z,72.00
2019-05-25T09:08:53.516Z,72.78
2019-05-25T09:11:22.523Z,72.83
2019-05-25T09:13:51.219Z,72.26
2019-05-25T09:16:20.251Z,72.43
2019-05-25T09:18:48.927Z,73.36
2019-05-25T09:21:18.478Z,72.65
2019-05-25T09:23:48.811Z,72.30
2019-05-25T09:26:17.656Z,73.67
2019-05-25T09:28:46.648Z,73.26
2019-05-25T09:31:15.400Z,73.16
2019-05-25T09:33:44.065Z,72.98
2019-05-25T09:36:12.744Z,72.14
2019-05-25T09:38:43.425Z,72.68
2019-05-25T09:41:11.843Z,71.90
2019-05-25T09:43:40.509Z,72.44
2019-05-25T09:46:09.219Z,72.31
2019-05-25T09:48:38.446Z,71.25
2019-05-25T09:51:15.408Z,71.34
2019-05-25T09:53:38.189Z,70.29
2019-05-25T09:56:06.873Z,71.58
2019-05-25T09:58:35.792Z,68.19
2019-05-25T10:01:04.874Z,68.23
2019-05-25T10:03:33.572Z,67.10
2019-05-25T10:06:11.006Z,67.89
2019-05-25T10:08:33.007Z,64.58
2019-05-25T10:11:01.697Z,65.12
2019-05-25T10:13:30.627Z,61.39
2019-05-25T10:15:59.556Z,62.08
2019-05-25T10:18:28.236Z,60.03
2019-05-25T10:20:56.912Z,61.04
2019-05-25T10:23:25.601Z,60.50
2019-05-25T10:25:54.300Z,60.93
2019-05-25T10:28:23.280Z,60.78
2019-05-25T10:30:51.971Z,59.68
2019-05-25T10:33:21.844Z,61.59
2019-05-25T10:35:50.668Z,61.65
2019-05-25T10:38:19.309Z,62.78
2019-05-25T10:40:47.991Z,60.82
2019-05-25T10:43:16.943Z,60.88
2019-05-25T10:45:45.941Z,60.56
2019-05-25T10:48:14.936Z,61.30
2019-05-25T10:50:43.618Z,60.99
2019-05-25T10:53:12.846Z,59.89
2019-05-25T10:55:41.547Z,60.56
2019-05-25T10:58:10.488Z,61.09
2019-05-25T11:00:39.588Z,61.44
2019-05-25T11:03:08.340Z,61.42
2019-05-25T11:05:37.118Z,62.00
2019-05-25T11:08:05.800Z,61.91
2019-05-25T11:10:34.743Z,62.35
2019-05-25T11:13:03.811Z,62.40
2019-05-25T11:15:32.824Z,61.23
2019-05-25T11:18:01.499Z,61.42
2019-05-25T11:20:30.182Z,61.13
2019-05-25T11:22:58.857Z,60.58
2019-05-25T11:25:27.556Z,60.69
2019-05-25T11:27:56.557Z,60.51
2019-05-25T11:30:25.653Z,58.26
2019-05-25T11:32:54.347Z,56.17
2019-05-25T11:35:23.215Z,57.51
2019-05-25T11:37:51.892Z,56.26
2019-05-25T11:40:21.238Z,56.02
2019-05-25T11:42:49.916Z,57.67
2019-05-25T11:45:19.134Z,58.15
2019-05-25T11:47:47.915Z,56.62
2019-05-25T11:50:17.184Z,55.02
2019-05-25T11:52:45.985Z,53.87
2019-05-25T11:55:16.408Z,54.57
2019-05-25T11:57:45.089Z,54.56
2019-05-25T12:00:24.285Z,55.27
2019-05-25T12:02:45.811Z,54.62
2019-05-25T12:05:14.934Z,55.91
2019-05-25T12:07:45.123Z,56.25
2019-05-25T12:10:14.372Z,53.13
2019-05-25T12:12:43.450Z,54.48
2019-05-25T12:15:13.871Z,56.12
2019-05-25T12:17:42.644Z,55.85
2019-05-25T12:20:13.208Z,53.82
2019-05-25T12:22:41.898Z,53.37
2019-05-25T12:25:10.842Z,54.90
2019-05-25T12:27:39.561Z,55.22
2019-05-25T12:30:10.085Z,54.22
2019-05-25T12:32:38.777Z,53.94
2019-05-25T12:35:08.223Z,55.58
2019-05-25T12:37:36.922Z,55.60
2019-05-25T12:40:07.225Z,55.34
2019-05-25T12:42:36.017Z,55.22
2019-05-25T12:45:05.254Z,54.59
2019-05-25T12:47:33.964Z,54.88
2019-05-25T12:50:05.396Z,53.71
2019-05-25T12:52:34.247Z,53.71
2019-05-25T12:55:03.066Z,51.53
2019-05-25T12:57:31.993Z,53.35
2019-05-25T13:00:14.294Z,53.84
2019-05-25T13:02:31.435Z,53.38
2019-05-25T13:05:00.118Z,52.98
2019-05-25T13:07:28.858Z,52.42
2019-05-25T13:09:57.543Z,53.62
2019-05-25T13:12:26.485Z,54.87
2019-05-25T13:14:55.389Z,52.67
2019-05-25T13:17:24.150Z,53.26
2019-05-25T13:19:52.824Z,53.54
2019-05-25T13:22:21.508Z,53.72
2019-05-25T13:24:50.212Z,53.55
2019-05-25T13:27:19.265Z,53.42
2019-05-25T13:29:48.181Z,55.02
2019-05-25T13:32:17.114Z,50.83
2019-05-25T13:34:45.839Z,52.69
2019-05-25T13:37:17.192Z,53.45
2019-05-25T13:39:44.953Z,53.72
2019-05-25T13:42:14.449Z,52.41
2019-05-25T13:44:43.140Z,52.21
2019-05-25T13:47:11.843Z,51.71
2019-05-25T13:49:40.736Z,49.72
2019-05-25T13:52:09.429Z,50.53
2019-05-25T13:54:38.106Z,49.48
2019-05-25T13:57:06.773Z,47.64
2019-05-25T13:59:35.984Z,48.25
2019-05-25T14:02:05.287Z,48.94
2019-05-25T14:04:34.489Z,50.01
2019-05-25T14:07:03.186Z,51.86
2019-05-25T14:09:32.104Z,53.00
2019-05-25T14:12:00.839Z,51.42
2019-05-25T14:14:29.518Z,50.04
2019-05-25T14:16:58.191Z,49.56
2019-05-25T14:19:26.921Z,48.86
2019-05-25T14:21:58.348Z,49.28
2019-05-25T14:24:27.091Z,49.54
2019-05-25T14:26:55.826Z,50.85
2019-05-25T14:29:26.697Z,51.38
2019-05-25T14:31:55.347Z,51.08
2019-05-25T14:34:24.026Z,50.22
2019-05-25T14:36:52.694Z,51.91
2019-05-25T14:39:21.374Z,50.15
2019-05-25T14:41:50.367Z,50.34
2019-05-25T14:44:19.303Z,49.93
2019-05-25T14:46:48.222Z,51.05
2019-05-25T14:49:16.905Z,51.78
2019-05-25T14:51:45.900Z,53.04
2019-05-25T14:54:14.575Z,53.50
2019-05-25T14:56:43.305Z,52.23
2019-05-25T14:59:11.997Z,52.10
2019-05-25T15:01:40.737Z,51.63
2019-05-25T15:04:09.747Z,52.06
2019-05-25T15:06:38.541Z,52.48
2019-05-25T15:09:07.752Z,52.79
2019-05-25T15:11:36.507Z,51.23
2019-05-25T15:14:05.518Z,52.14
2019-05-25T15:16:34.420Z,49.84
2019-05-25T15:19:03.106Z,49.49
2019-05-25T15:21:32.119Z,50.29
2019-05-25T15:24:01.074Z,49.45
2019-05-25T15:26:29.738Z,51.14
2019-05-25T15:28:58.417Z,51.23
2019-05-25T15:31:27.080Z,53.17
2019-05-25T15:33:56.021Z,50.67
2019-05-25T15:36:24.701Z,51.74
2019-05-25T15:38:53.378Z,51.77
2019-05-25T15:41:22.049Z,52.31
2019-05-25T15:43:50.728Z,53.10
2019-05-25T15:46:19.413Z,53.15
2019-05-25T15:48:48.335Z,52.47
2019-05-25T15:51:17.004Z,53.14
2019-05-25T15:53:46.042Z,52.35
2019-05-25T15:56:15.455Z,52.89
2019-05-25T15:58:44.153Z,52.71
2019-05-25T16:01:13.161Z,53.22
2019-05-25T16:03:42.209Z,53.58
2019-05-25T16:06:10.885Z,53.77
2019-05-25T16:08:39.792Z,53.43
2019-05-25T16:11:08.722Z,54.49
2019-05-25T16:13:37.388Z,52.52
2019-05-25T16:16:06.404Z,53.48
2019-05-25T16:18:35.066Z,54.13
2019-05-25T16:21:03.986Z,54.29
2019-05-25T16:23:32.757Z,53.07
2019-05-25T16:26:01.519Z,53.45
2019-05-25T16:28:30.208Z,53.98
2019-05-25T16:30:59.175Z,53.37
2019-05-25T16:33:27.842Z,53.21
2019-05-25T16:35:58.046Z,53.60
2019-05-25T16:38:27.104Z,53.06
2019-05-25T16:40:56.037Z,54.41
2019-05-25T16:43:24.716Z,54.67
2019-05-25T16:45:53.642Z,53.39
2019-05-25T16:48:22.548Z,52.50
2019-05-25T16:50:51.230Z,53.46
2019-05-25T16:53:20.207Z,54.80
2019-05-25T16:55:49.190Z,54.45
2019-05-25T16:58:17.884Z,54.66
2019-05-25T17:00:46.591Z,54.32
2019-05-25T17:03:27.676Z,53.77
2019-05-25T17:05:46.226Z,54.06
2019-05-25T17:08:14.896Z,53.53
2019-05-25T17:10:43.824Z,53.01
2019-05-25T17:13:12.778Z,52.85
2019-05-25T17:15:41.712Z,52.84
2019-05-25T17:18:10.375Z,52.62
2019-05-25T17:20:39.159Z,53.14
2019-05-25T17:23:07.899Z,52.44
2019-05-25T17:25:36.588Z,52.84
2019-05-25T17:28:05.273Z,51.54
2019-05-25T17:30:42.632Z,51.81
2019-05-25T17:33:11.799Z,53.61
2019-05-25T17:35:40.572Z,51.09
2019-05-25T17:38:10.690Z,51.37
2019-05-25T17:40:39.515Z,51.51
2019-05-25T17:43:08.491Z,52.80
2019-05-25T17:45:37.262Z,52.57
2019-05-25T17:48:06.069Z,52.47
2019-05-25T17:50:34.826Z,53.53
2019-05-25T17:53:04.869Z,53.88
2019-05-25T17:55:34.108Z,53.14
2019-05-25T17:58:02.798Z,54.05
2019-05-25T18:00:43.409Z,54.46
2019-05-25T18:03:12.387Z,55.67
2019-05-25T18:05:41.399Z,53.71
2019-05-25T18:08:10.197Z,53.34
2019-05-25T18:10:51.857Z,54.23
2019-05-25T18:13:09.724Z,54.75
2019-05-25T18:15:38.415Z,53.42
2019-05-25T18:18:07.405Z,54.79
2019-05-25T18:20:36.208Z,55.08
2019-05-25T18:23:05.507Z,53.97
2019-05-25T18:25:34.782Z,53.57
2019-05-25T18:28:03.619Z,54.46
2019-05-25T18:30:32.461Z,54.66
2019-05-25T18:33:01.146Z,54.59
2019-05-25T18:35:30.064Z,54.44
2019-05-25T18:37:58.724Z,55.58
2019-05-25T18:40:30.560Z,55.73
2019-05-25T18:42:58.405Z,56.57
2019-05-25T18:45:27.240Z,56.53
2019-05-25T18:47:56.792Z,56.09
2019-05-25T18:50:25.617Z,56.68
2019-05-25T18:52:54.300Z,56.86
2019-05-25T18:55:23.113Z,56.91
2019-05-25T18:57:51.792Z,57.41
2019-05-25T19:00:20.900Z,57.78
2019-05-25T19:02:49.656Z,57.91
2019-05-25T19:05:18.961Z,57.88
2019-05-25T19:07:47.729Z,58.34
2019-05-25T19:10:16.585Z,58.06
2019-05-25T19:12:45.337Z,57.91
2019-05-25T19:15:14.874Z,58.39
2019-05-25T19:17:43.556Z,58.81
2019-05-25T19:20:12.609Z,59.11
2019-05-25T19:22:41.259Z,59.36
2019-05-25T19:25:11.922Z,59.80
2019-05-25T19:27:40.665Z,59.57
2019-05-25T19:30:12.920Z,60.03
2019-05-25T19:32:41.602Z,60.86
2019-05-25T19:35:11.845Z,62.75
2019-05-25T19:37:42.477Z,63.76
2019-05-25T19:40:11.582Z,64.17
2019-05-25T19:42:40.227Z,65.00
2019-05-25T19:45:09.640Z,65.61
2019-05-25T19:47:38.423Z,66.33
2019-05-25T19:50:07.583Z,66.94
2019-05-25T19:52:36.371Z,66.99
2019-05-25T19:55:05.289Z,67.29
2019-05-25T19:57:33.984Z,67.07
2019-05-25T20:00:02.881Z,66.10
2019-05-25T20:02:31.888Z,65.74
2019-05-25T20:05:15.005Z,66.60
2019-05-25T20:07:31.188Z,67.78
2019-05-25T20:09:59.862Z,68.10
2019-05-25T20:12:28.582Z,68.03
2019-05-25T20:14:57.494Z,67.56
2019-05-25T20:17:26.419Z,67.70
2019-05-25T20:19:55.140Z,68.42
2019-05-25T20:22:23.766Z,68.55
2019-05-25T20:24:52.425Z,69.25
2019-05-25T20:27:24.351Z,68.42
2019-05-25T20:29:53.263Z,68.73
2019-05-25T20:32:22.193Z,68.93
2019-05-25T20:34:51.093Z,69.59
2019-05-25T20:37:19.761Z,69.35
2019-05-25T20:39:48.944Z,69.25
2019-05-25T20:42:17.627Z,69.55
2019-05-25T20:44:46.294Z,69.07
2019-05-25T20:47:14.980Z,69.71
2019-05-25T20:49:43.897Z,69.88
2019-05-25T20:52:12.570Z,69.68
2019-05-25T20:54:41.260Z,68.57
2019-05-25T20:57:09.928Z,68.92
2019-05-25T20:59:38.847Z,68.77
2019-05-25T21:02:07.713Z,68.39
2019-05-25T21:04:36.394Z,68.23
2019-05-25T21:07:05.287Z,68.22
2019-05-25T21:09:34.008Z,67.69
2019-05-25T21:12:02.753Z,68.06
2019-05-25T21:14:31.420Z,68.24
2019-05-25T21:17:00.592Z,68.53
2019-05-25T21:19:29.274Z,69.38
2019-05-25T21:21:58.182Z,70.48
2019-05-25T21:24:26.926Z,70.47
2019-05-25T21:26:56.087Z,70.40
2019-05-25T21:29:24.764Z,71.05
2019-05-25T21:31:53.436Z,71.34
2019-05-25T21:34:22.117Z,70.92
2019-05-25T21:36:50.804Z,71.08
2019-05-25T21:39:19.488Z,70.99
2019-05-25T21:41:48.446Z,71.62
2019-05-25T21:44:17.189Z,72.47
2019-05-25T21:46:45.877Z,72.30
2019-05-25T21:49:14.784Z,72.07
2019-05-25T21:51:43.722Z,72.12
2019-05-25T21:54:12.385Z,72.00
2019-05-25T21:56:41.168Z,71.77
2019-05-25T21:59:09.825Z,71.89
2019-05-25T22:01:38.652Z,72.03
2019-05-25T22:04:07.423Z,72.13
2019-05-25T22:06:36.567Z,72.10
2019-05-25T22:09:07.420Z,72.13
2019-05-25T22:11:36.121Z,72.21
2019-05-25T22:14:05.007Z,72.40
2019-05-25T22:16:33.696Z,73.00
2019-05-25T22:19:02.635Z,73.48
2019-05-25T22:21:31.822Z,73.34
2019-05-25T22:24:00.513Z,73.44
2019-05-25T22:26:29.426Z,73.17
2019-05-25T22:28:58.380Z,73.90
2019-05-25T22:31:27.039Z,74.09
2019-05-25T22:33:59.128Z,73.32
2019-05-25T22:36:39.776Z,73.18
2019-05-25T22:38:58.613Z,73.29
2019-05-25T22:41:27.283Z,73.09
2019-05-25T22:43:56.448Z,73.11
2019-05-25T22:46:25.383Z,73.06
2019-05-25T22:48:54.070Z,73.20
2019-05-25T22:51:22.981Z,73.42
2019-05-25T22:53:51.671Z,73.34
2019-05-25T22:56:20.333Z,72.91
2019-05-25T22:58:49.034Z,72.90
2019-05-25T23:01:17.702Z,73.27
2019-05-25T23:03:46.379Z,73.98
2019-05-25T23:06:15.295Z,74.06
2019-05-25T23:08:44.241Z,75.09
2019-05-25T23:11:16.019Z,74.32
2019-05-25T23:13:45.203Z,74.25
2019-05-25T23:16:13.893Z,74.02
2019-05-25T23:18:42.658Z,74.60
2019-05-25T23:21:11.574Z,74.84
2019-05-25T23:23:40.480Z,74.75
2019-05-25T23:26:09.188Z,74.54
2019-05-25T23:28:37.867Z,74.37
2019-05-25T23:31:06.563Z,74.03
2019-05-25T23:33:35.235Z,74.64
2019-05-25T23:36:04.282Z,74.39
2019-05-25T23:38:33.198Z,74.65
2019-05-25T23:41:03.911Z,74.89
2019-05-25T23:43:32.293Z,74.55
2019-05-25T23:46:01.320Z,73.65
2019-05-25T23:48:30.311Z,73.03
2019-05-25T23:50:59.007Z,73.14
2019-05-25T23:53:27.693Z,73.32
2019-05-25T23:55:56.612Z,73.85
2019-05-25T23:58:25.295Z,74.88
